Time,TemperatureF,DewpointF,PressureIn,WindDirection,WindDirectionDegrees,WindSpeedMPH,WindSpeedGustMPH,Humidity,HourlyPrecipIn,Conditions,Clouds,dailyrainin,SolarRadiationWatts/m^2,SoftwareType,DateUTC
2013-08-12 00:01:00,81.9,75.0,30.10,East,95,0.0,2.0,79,0.00,,,0.00,0,weatherlink.com 1.10,2013-08-12 04:01:00,
2013-08-12 00:16:00,81.7,75.0,30.09,East,95,0.0,2.0,79,0.00,,,0.00,0,weatherlink.com 1.10,2013-08-12 04:16:00,
2013-08-12 00:31:00,81.4,74.0,30.09,East,94,0.0,1.0,79,0.00,,,0.00,0,weatherlink.com 1.10,2013-08-12 04:31:00,
2013-08-12 00:46:00,81.0,74.0,30.09,East,94,0.0,1.0,79,0.00,,,0.00,0,weatherlink.com 1.10,2013-08-12 04:46:00,
2013-08-12 01:01:00,80.9,75.0,30.08,East,95,0.0,1.0,81,0.00,,,0.00,0,weatherlink.com 1.10,2013-08-12 05:01:00,
2013-08-12 01:17:00,80.8,75.0,30.09,East,94,0.0,1.0,81,0.00,,,0.00,0,weatherlink.com 1.10,2013-08-12 05:17:00,
2013-08-12 01:32:00,80.7,74.0,30.08,East,94,0.0,1.0,81,0.00,,,0.00,0,weatherlink.com 1.10,2013-08-12 05:32:00,
2013-08-12 01:47:00,80.5,74.0,30.08,East,95,0.0,1.0,81,0.00,,,0.00,0,weatherlink.com 1.10,2013-08-12 05:47:00,
2013-08-12 02:02:00,80.3,74.0,30.08,East,94,0.0,1.0,81,0.00,,,0.00,0,weatherlink.com 1.10,2013-08-12 06:02:00,
2013-08-12 02:17:00,80.1,74.0,30.08,East,94,0.0,1.0,82,0.00,,,0.00,0,weatherlink.com 1.10,2013-08-12 06:17:00,
2013-08-12 02:32:00,79.8,74.0,30.07,East,94,0.0,1.0,82,0.00,,,0.00,0,weatherlink.com 1.10,2013-08-12 06:32:00,
2013-08-12 02:47:00,79.8,74.0,30.07,East,94,0.0,1.0,81,0.00,,,0.00,0,weatherlink.com 1.10,2013-08-12 06:47:00,
2013-08-12 03:02:00,79.4,74.0,30.06,East,94,0.0,0.0,82,0.00,,,0.00,0,weatherlink.com 1.10,2013-08-12 07:02:00,
2013-08-12 03:17:00,79.2,74.0,30.06,East,95,0.0,0.0,83,0.00,,,0.00,0,weatherlink.com 1.10,2013-08-12 07:17:00,
2013-08-12 03:32:00,78.9,73.0,30.06,East,94,0.0,1.0,83,0.00,,,0.00,0,weatherlink.com 1.10,2013-08-12 07:32:00,
2013-08-12 03:47:00,78.5,73.0,30.05,East,94,0.0,0.0,84,0.00,,,0.00,0,weatherlink.com 1.10,2013-08-12 07:47:00,
2013-08-12 04:02:00,78.1,73.0,30.05,East,94,0.0,0.0,85,0.00,,,0.00,0,weatherlink.com 1.10,2013-08-12 08:02:00,
2013-08-12 04:17:00,77.5,73.0,30.06,East,94,0.0,0.0,85,0.00,,,0.00,0,weatherlink.com 1.10,2013-08-12 08:17:00,
2013-08-12 04:32:00,77.1,73.0,30.06,East,95,0.0,0.0,86,0.00,,,0.00,0,weatherlink.com 1.10,2013-08-12 08:32:00,
2013-08-12 04:47:00,77.1,73.0,30.05,East,94,0.0,0.0,87,0.00,,,0.00,0,weatherlink.com 1.10,2013-08-12 08:47:00,
2013-08-12 05:02:00,77.2,73.0,30.05,East,95,0.0,0.0,87,0.00,,,0.00,0,weatherlink.com 1.10,2013-08-12 09:02:00,
2013-08-12 05:17:00,77.3,73.0,30.05,ENE,58,0.0,0.0,87,0.00,,,0.00,0,weatherlink.com 1.10,2013-08-12 09:17:00,
2013-08-12 05:32:00,77.1,73.0,30.05,ENE,58,0.0,0.0,87,0.00,,,0.00,0,weatherlink.com 1.10,2013-08-12 09:32:00,
2013-08-12 05:47:00,76.8,73.0,30.05,ENE,58,0.0,0.0,87,0.00,,,0.00,0,weatherlink.com 1.10,2013-08-12 09:47:00,
2013-08-12 06:02:00,76.7,73.0,30.05,ENE,58,0.0,0.0,88,0.00,,,0.00,0,weatherlink.com 1.10,2013-08-12 10:02:00,
2013-08-12 06:17:00,76.4,73.0,30.05,ENE,58,0.0,0.0,88,0.00,,,0.00,0,weatherlink.com 1.10,2013-08-12 10:17:00,
2013-08-12 06:32:00,76.1,73.0,30.06,ENE,58,0.0,0.0,89,0.00,,,0.00,0,weatherlink.com 1.10,2013-08-12 10:32:00,
2013-08-12 06:47:00,76.7,74.0,30.06,ENE,58,0.0,0.0,90,0.00,,,0.00,0,weatherlink.com 1.10,2013-08-12 10:47:00,
2013-08-12 07:02:00,77.3,74.0,30.06,ENE,58,0.0,0.0,90,0.00,,,0.00,16,weatherlink.com 1.10,2013-08-12 11:02:00,
2013-08-12 07:17:00,76.9,74.0,30.06,ENE,58,0.0,1.0,90,0.00,,,0.00,28,weatherlink.com 1.10,2013-08-12 11:17:00,
2013-08-12 07:32:00,77.5,75.0,30.06,ENE,58,0.0,1.0,91,0.00,,,0.00,69,weatherlink.com 1.10,2013-08-12 11:32:00,
2013-08-12 07:47:00,79.3,76.0,30.06,ENE,58,1.0,1.0,89,0.00,,,0.00,120,weatherlink.com 1.10,2013-08-12 11:47:00,
2013-08-12 08:02:00,81.4,76.0,30.07,ENE,58,0.0,2.0,84,0.00,,,0.00,172,weatherlink.com 1.10,2013-08-12 12:02:00,
2013-08-12 08:17:00,83.2,75.0,30.07,East,81,2.0,4.0,76,0.00,,,0.00,227,weatherlink.com 1.10,2013-08-12 12:17:00,
2013-08-12 08:32:00,83.7,74.0,30.07,ENE,78,1.0,5.0,73,0.00,,,0.00,281,weatherlink.com 1.10,2013-08-12 12:32:00,
2013-08-12 08:48:00,84.1,74.0,30.08,ESE,108,7.0,9.0,72,0.00,,,0.00,334,weatherlink.com 1.10,2013-08-12 12:48:00,
2013-08-12 09:03:00,84.4,74.0,30.07,ESE,102,3.0,7.0,71,0.00,,,0.00,387,weatherlink.com 1.10,2013-08-12 13:03:00,
2013-08-12 09:18:00,84.8,74.0,30.07,East,82,4.0,9.0,71,0.00,,,0.00,446,weatherlink.com 1.10,2013-08-12 13:18:00,
2013-08-12 09:33:00,84.9,75.0,30.07,NE,51,0.0,9.0,71,0.00,,,0.00,501,weatherlink.com 1.10,2013-08-12 13:33:00,
2013-08-12 09:48:00,85.3,75.0,30.07,ENE,74,5.0,11.0,71,0.00,,,0.00,559,weatherlink.com 1.10,2013-08-12 13:48:00,
2013-08-12 10:03:00,85.2,76.0,30.07,NE,38,2.0,10.0,73,0.00,,,0.00,258,weatherlink.com 1.10,2013-08-12 14:03:00,
2013-08-12 10:18:00,85.1,76.0,30.07,SE,139,4.0,8.0,73,0.00,,,0.00,202,weatherlink.com 1.10,2013-08-12 14:18:00,
2013-08-12 10:33:00,85.7,75.0,30.07,East,82,2.0,7.0,70,0.00,,,0.00,689,weatherlink.com 1.10,2013-08-12 14:33:00,
2013-08-12 10:48:00,85.7,74.0,30.07,East,86,3.0,10.0,69,0.00,,,0.00,733,weatherlink.com 1.10,2013-08-12 14:48:00,
2013-08-12 11:18:00,86.3,77.0,30.07,East,83,3.0,10.0,73,0.00,,,0.00,921,weatherlink.com 1.10,2013-08-12 15:18:00,
2013-08-12 11:48:00,86.3,75.0,30.07,NNE,14,4.0,10.0,69,0.00,,,0.00,1072,weatherlink.com 1.10,2013-08-12 15:48:00,
2013-08-12 12:03:00,86.7,78.0,30.07,ESE,103,6.0,9.0,74,0.00,,,0.00,1039,weatherlink.com 1.10,2013-08-12 16:03:00,
2013-08-12 12:18:00,86.6,77.0,30.07,East,92,3.0,9.0,72,0.00,,,0.00,1074,weatherlink.com 1.10,2013-08-12 16:18:00,
2013-08-12 12:33:00,86.6,76.0,30.06,ENE,63,4.0,9.0,70,0.00,,,0.00,960,weatherlink.com 1.10,2013-08-12 16:33:00,
2013-08-12 12:48:00,86.3,76.0,30.06,ESE,109,3.0,12.0,71,0.00,,,0.00,1093,weatherlink.com 1.10,2013-08-12 16:48:00,
2013-08-12 13:03:00,87.4,77.0,30.06,East,90,3.0,9.0,70,0.00,,,0.00,1095,weatherlink.com 1.10,2013-08-12 17:03:00,
2013-08-12 13:18:00,86.6,76.0,30.05,East,85,4.0,9.0,70,0.00,,,0.00,1107,weatherlink.com 1.10,2013-08-12 17:18:00,
2013-08-12 13:33:00,86.8,76.0,30.05,East,92,2.0,11.0,69,0.00,,,0.00,250,weatherlink.com 1.10,2013-08-12 17:33:00,
2013-08-12 13:49:00,86.7,76.0,30.05,East,84,4.0,9.0,71,0.00,,,0.00,1085,weatherlink.com 1.10,2013-08-12 17:49:00,
2013-08-12 14:03:00,87.5,75.0,30.05,SE,140,3.0,10.0,67,0.00,,,0.00,953,weatherlink.com 1.10,2013-08-12 18:03:00,
2013-08-12 14:18:00,86.9,76.0,30.04,ENE,75,4.0,10.0,69,0.00,,,0.00,473,weatherlink.com 1.10,2013-08-12 18:18:00,
2013-08-12 14:34:00,86.2,75.0,30.04,East,93,7.0,9.0,70,0.00,,,0.00,886,weatherlink.com 1.10,2013-08-12 18:34:00,
2013-08-12 14:48:00,86.1,76.0,30.04,ENE,57,5.0,10.0,72,0.00,,,0.00,338,weatherlink.com 1.10,2013-08-12 18:48:00,
2013-08-12 15:04:00,85.2,75.0,30.03,ESE,104,7.0,8.0,71,0.00,,,0.00,257,weatherlink.com 1.10,2013-08-12 19:04:00,
2013-08-12 15:19:00,85.2,75.0,30.03,East,80,3.0,10.0,71,0.00,,,0.00,329,weatherlink.com 1.10,2013-08-12 19:19:00,
2013-08-12 15:34:00,85.0,75.0,30.03,NNW,346,2.0,8.0,71,0.00,,,0.00,306,weatherlink.com 1.10,2013-08-12 19:34:00,
2013-08-12 15:49:00,85.7,75.0,30.02,North,11,2.0,8.0,71,0.00,,,0.00,937,weatherlink.com 1.10,2013-08-12 19:49:00,
2013-08-12 16:04:00,86.5,75.0,30.02,SE,134,8.0,11.0,68,0.00,,,0.00,299,weatherlink.com 1.10,2013-08-12 20:04:00,
2013-08-12 16:19:00,85.6,76.0,30.03,East,88,7.0,10.0,72,0.00,,,0.00,663,weatherlink.com 1.10,2013-08-12 20:19:00,
2013-08-12 16:34:00,86.0,77.0,30.02,East,92,4.0,11.0,74,0.00,,,0.00,364,weatherlink.com 1.10,2013-08-12 20:34:00,
2013-08-12 16:49:00,85.4,75.0,30.02,East,101,6.0,11.0,72,0.00,,,0.00,469,weatherlink.com 1.10,2013-08-12 20:49:00,
2013-08-12 17:04:00,85.4,75.0,30.02,East,91,6.0,12.0,72,0.00,,,0.00,496,weatherlink.com 1.10,2013-08-12 21:04:00,
2013-08-12 17:19:00,85.4,76.0,30.02,NNE,28,5.0,10.0,73,0.00,,,0.00,388,weatherlink.com 1.10,2013-08-12 21:19:00,
2013-08-12 17:34:00,85.0,76.0,30.01,ESE,112,6.0,8.0,74,0.00,,,0.00,179,weatherlink.com 1.10,2013-08-12 21:34:00,
2013-08-12 17:49:00,85.1,76.0,30.01,East,90,6.0,7.0,75,0.00,,,0.00,169,weatherlink.com 1.10,2013-08-12 21:49:00,
2013-08-12 18:04:00,85.0,76.0,30.02,SE,126,5.0,9.0,75,0.00,,,0.00,174,weatherlink.com 1.10,2013-08-12 22:04:00,
2013-08-12 18:19:00,84.6,77.0,30.01,East,85,3.0,10.0,77,0.00,,,0.00,107,weatherlink.com 1.10,2013-08-12 22:19:00,
2013-08-12 18:34:00,84.0,77.0,30.01,East,87,2.0,8.0,78,0.00,,,0.00,91,weatherlink.com 1.10,2013-08-12 22:34:00,
2013-08-12 18:49:00,84.0,77.0,30.01,East,100,4.0,8.0,78,0.00,,,0.00,79,weatherlink.com 1.10,2013-08-12 22:49:00,
2013-08-12 19:04:00,83.9,75.0,30.01,ESE,109,7.0,10.0,75,0.00,,,0.00,33,weatherlink.com 1.10,2013-08-12 23:04:00,
2013-08-12 19:19:00,83.9,75.0,30.01,East,101,1.0,7.0,75,0.00,,,0.00,21,weatherlink.com 1.10,2013-08-12 23:19:00,
2013-08-12 19:34:00,83.6,76.0,30.01,ENE,76,3.0,7.0,77,0.00,,,0.00,14,weatherlink.com 1.10,2013-08-12 23:34:00,
2013-08-12 19:49:00,83.6,76.0,30.01,SE,136,3.0,6.0,78,0.00,,,0.00,7,weatherlink.com 1.10,2013-08-12 23:49:00,
2013-08-12 20:04:00,83.4,76.0,30.00,East,82,3.0,8.0,79,0.00,,,0.00,0,weatherlink.com 1.10,2013-08-13 00:04:00,
2013-08-12 20:19:00,82.9,75.0,30.01,East,94,3.0,6.0,78,0.00,,,0.00,0,weatherlink.com 1.10,2013-08-13 00:19:00,
2013-08-12 20:34:00,82.8,75.0,30.01,ENE,76,1.0,6.0,78,0.00,,,0.00,0,weatherlink.com 1.10,2013-08-13 00:34:00,
2013-08-12 20:49:00,82.5,75.0,30.01,East,97,0.0,3.0,79,0.00,,,0.00,0,weatherlink.com 1.10,2013-08-13 00:49:00,
2013-08-12 21:04:00,82.4,76.0,30.02,East,97,0.0,1.0,80,0.00,,,0.00,0,weatherlink.com 1.10,2013-08-13 01:04:00,
2013-08-12 21:19:00,82.6,76.0,30.02,East,97,1.0,2.0,81,0.00,,,0.00,0,weatherlink.com 1.10,2013-08-13 01:19:00,
2013-08-12 21:34:00,82.8,76.0,30.02,East,82,1.0,5.0,81,0.00,,,0.00,0,weatherlink.com 1.10,2013-08-13 01:34:00,
2013-08-12 21:49:00,82.9,75.0,30.03,ESE,115,2.0,6.0,78,0.00,,,0.00,0,weatherlink.com 1.10,2013-08-13 01:49:00,
2013-08-12 22:04:00,83.0,76.0,30.03,East,80,0.0,3.0,79,0.00,,,0.00,0,weatherlink.com 1.10,2013-08-13 02:04:00,
2013-08-12 22:19:00,82.9,76.0,30.03,ESE,110,3.0,4.0,79,0.00,,,0.00,0,weatherlink.com 1.10,2013-08-13 02:19:00,
2013-08-12 22:34:00,82.8,76.0,30.03,ESE,105,0.0,4.0,79,0.00,,,0.00,0,weatherlink.com 1.10,2013-08-13 02:34:00,
2013-08-12 22:49:00,82.6,76.0,30.04,East,93,0.0,4.0,80,0.00,,,0.00,0,weatherlink.com 1.10,2013-08-13 02:49:00,
2013-08-12 23:04:00,82.6,76.0,30.04,East,80,0.0,3.0,80,0.00,,,0.00,0,weatherlink.com 1.10,2013-08-13 03:04:00,
2013-08-12 23:19:00,82.4,76.0,30.04,East,98,0.0,3.0,81,0.00,,,0.00,0,weatherlink.com 1.10,2013-08-13 03:19:00,
2013-08-12 23:34:00,82.3,76.0,30.04,East,98,0.0,2.0,81,0.00,,,0.00,0,weatherlink.com 1.10,2013-08-13 03:34:00,